Weather History for Yankton, SD

Change the Weather History Date:

Tuesday, November 27, 2012

  Actual Average Record
Temperature  
Mean Temperature 26 °F -  
Max Temperature 39 °F 37 °F 69 °F (1998)
Min Temperature 14 °F 19 °F -6 °F (1985)
Degree Days  
Heating Degree Days 38    
Moisture  
Dew Point 20 °F    
Average Humidity 74    
Maximum Humidity 100    
Minimum Humidity 56    
Precipitation  
Precipitation 0.00 in - - ()
Sea Level Pressure  
Sea Level Pressure 30.21 in    
Wind  
Wind Speed 7 mph (SW)    
Max Wind Speed 15 mph    
Max Gust Speed 20 mph    
Visibility 10 miles    
Events      
Averages and records for this station are not official NWS values.
T = Trace of Precipitation, MM = Missing Value Source: NWS Daily Summary

Daily Weather History Graph

Daily Weather History Graph

Search for Another Location

Airport:

Trip Planner

Search our weather history database for the weather conditions in past years. The results will help you decide how hot, cold, wet, or windy it might be!

Date:

Astronomy

Nov. 27, 2012 Rise Set
Actual Time 7:36 AM CST 4:57 PM CST
Civil Twilight 7:05 AM CST 5:29 PM CST
Nautical Twilight 6:30 AM CST 6:04 PM CST
Astronomical Twilight 5:56 AM CST 6:38 PM CST
Moon 4:30 PM CST 6:42 AM CST
Length of Visible Light 10h 23m
Length of Day
9h 20m
Waxing Gibbous, 99% of the Moon is Illuminated
Nov 27
Waxing Gibbous
Nov 28
Full
Dec 6
Last Quarter
Dec 13
New
Dec 19
First Quarter

Hourly Weather History & Observations

Time (CST) Temp. Windchill Dew Point Humidity Pressure Visibility Wind Dir Wind Speed Gust Speed Precip Events Conditions
12:15 AM 15.8 °F 8.6 °F 10.4 °F 79% 30.36 in 10.0 mi SSE 4.6 mph - N/A   Clear
12:35 AM 14.0 °F 5.1 °F 8.6 °F 79% 30.35 in 10.0 mi SSE 5.8 mph - N/A   Clear
12:55 AM 15.8 °F 8.6 °F 8.6 °F 73% 30.35 in 10.0 mi SE 4.6 mph - N/A   Clear
1:15 AM 15.8 °F 8.6 °F 12.2 °F 86% 30.34 in 10.0 mi SSE 4.6 mph - N/A   Clear
1:35 AM 15.8 °F 8.6 °F 10.4 °F 79% 30.33 in 10.0 mi SSE 4.6 mph - N/A   Clear
1:55 AM 15.8 °F 7.2 °F 10.4 °F 79% 30.32 in 10.0 mi SE 5.8 mph - N/A   Clear
2:15 AM 15.8 °F 6.1 °F 12.2 °F 86% 30.32 in 10.0 mi SSE 6.9 mph - N/A   Clear
2:35 AM 15.8 °F 6.1 °F 14.0 °F 93% 30.31 in 10.0 mi SSE 6.9 mph - N/A   Clear
2:55 AM 15.8 °F 7.2 °F 14.0 °F 93% 30.30 in 10.0 mi SSE 5.8 mph - N/A   Clear
3:15 AM 17.6 °F 9.3 °F 17.6 °F 100% 30.29 in 10.0 mi SSE 5.8 mph - N/A   Clear
3:35 AM 17.6 °F 8.2 °F 14.0 °F 86% 30.29 in 10.0 mi SE 6.9 mph - N/A   Clear
3:55 AM 17.6 °F 9.3 °F 15.8 °F 93% 30.28 in 10.0 mi SSE 5.8 mph - N/A   Clear
4:15 AM 19.4 °F 12.8 °F 15.8 °F 86% 30.26 in 10.0 mi SE 4.6 mph - N/A   Clear
4:35 AM 17.6 °F 9.3 °F 15.8 °F 93% 30.26 in 10.0 mi SE 5.8 mph - N/A   Clear
4:55 AM 19.4 °F 10.4 °F 17.6 °F 93% 30.25 in 10.0 mi SE 6.9 mph - N/A   Clear
5:15 AM 17.6 °F 7.3 °F 15.8 °F 93% 30.24 in 10.0 mi South 8.1 mph - N/A   Clear
5:55 AM 23.0 °F 14.7 °F 19.4 °F 86% 30.22 in 10.0 mi South 6.9 mph - N/A   Clear
6:15 AM 23.0 °F 17.0 °F 19.4 °F 86% 30.22 in 10.0 mi SSE 4.6 mph - N/A   Clear
6:35 AM 24.8 °F 16.1 °F 21.2 °F 86% 30.21 in 10.0 mi South 8.1 mph - N/A   Clear
6:55 AM 24.8 °F 16.1 °F 19.4 °F 80% 30.20 in 10.0 mi South 8.1 mph - N/A   Clear
7:15 AM 24.8 °F 16.1 °F 21.2 °F 86% 30.20 in 10.0 mi South 8.1 mph - N/A   Clear
7:35 AM 26.6 °F 16.8 °F 21.2 °F 80% 30.19 in 10.0 mi South 10.4 mph 18.4 mph N/A   Clear
7:55 AM 26.6 °F 17.5 °F 21.2 °F 80% 30.18 in 10.0 mi South 9.2 mph - N/A   Clear
8:15 AM 26.6 °F 19.1 °F 21.2 °F 80% 30.19 in 10.0 mi South 6.9 mph - N/A   Clear
8:35 AM 26.6 °F 19.1 °F 21.2 °F 80% 30.18 in 10.0 mi South 6.9 mph - N/A   Clear
8:55 AM 28.4 °F 18.0 °F 21.2 °F 74% 30.17 in 10.0 mi South 12.7 mph - N/A   Clear
9:15 AM 28.4 °F 19.1 °F 21.2 °F 74% 30.16 in 10.0 mi South 10.4 mph - N/A   Clear
9:35 AM 28.4 °F 18.5 °F 23.0 °F 80% 30.16 in 10.0 mi SSW 11.5 mph - N/A   Clear
9:55 AM 30.2 °F 21.3 °F 23.0 °F 75% 30.16 in 10.0 mi SSW 10.4 mph - N/A   Clear
10:15 AM 32.0 °F 23.6 °F 23.0 °F 69% 30.16 in 10.0 mi South 10.4 mph - N/A   Clear
10:35 AM 33.8 °F 24.3 °F 24.8 °F 70% 30.16 in 10.0 mi SSW 13.8 mph - N/A   Clear
10:55 AM 35.6 °F 26.6 °F 24.8 °F 65% 30.16 in 10.0 mi SW 13.8 mph - N/A   Clear
11:15 AM 37.4 °F 29.3 °F 24.8 °F 60% 30.15 in 10.0 mi WSW 12.7 mph - N/A   Clear
11:35 AM 37.4 °F 28.5 °F 24.8 °F 60% 30.14 in 10.0 mi SW 15.0 mph - N/A   Clear
11:55 AM 37.4 °F 29.8 °F 23.0 °F 56% 30.13 in 10.0 mi WSW 11.5 mph - N/A   Clear
12:15 PM 37.4 °F 29.3 °F 23.0 °F 56% 30.13 in 10.0 mi WSW 12.7 mph - N/A   Clear
12:35 PM 37.4 °F 29.8 °F 24.8 °F 60% 30.12 in 10.0 mi West 11.5 mph - N/A   Clear
12:55 PM 39.2 °F 32.0 °F 24.8 °F 56% 30.12 in 10.0 mi West 11.5 mph 19.6 mph N/A   Clear
1:15 PM 37.4 °F 29.3 °F 23.0 °F 56% 30.12 in 10.0 mi WSW 12.7 mph - N/A   Clear
1:35 PM 37.4 °F 29.8 °F 24.8 °F 60% 30.12 in 10.0 mi WSW 11.5 mph - N/A   Clear
1:55 PM 37.4 °F 29.3 °F 23.0 °F 56% 30.12 in 10.0 mi West 12.7 mph - N/A   Clear
2:15 PM 37.4 °F 30.3 °F 24.8 °F 60% 30.12 in 10.0 mi West 10.4 mph - N/A   Clear
2:35 PM 39.2 °F 31.2 °F 24.8 °F 56% 30.11 in 10.0 mi West 13.8 mph - N/A   Clear
2:55 PM 39.2 °F 32.0 °F 24.8 °F 56% 30.12 in 10.0 mi West 11.5 mph - N/A   Clear
3:15 PM 39.2 °F 32.0 °F 24.8 °F 56% 30.13 in 10.0 mi West 11.5 mph - N/A   Clear
3:35 PM 39.2 °F 33.6 °F 24.8 °F 56% 30.13 in 10.0 mi West 8.1 mph - N/A   Clear
3:55 PM 39.2 °F 33.0 °F 24.8 °F 56% 30.14 in 10.0 mi WSW 9.2 mph - N/A   Clear
4:15 PM 39.2 °F 33.0 °F 24.8 °F 56% 30.15 in 10.0 mi West 9.2 mph - N/A   Clear
4:35 PM 37.4 °F 31.4 °F 23.0 °F 56% 30.16 in 10.0 mi West 8.1 mph - N/A   Clear
4:55 PM 35.6 °F 29.9 °F 23.0 °F 60% 30.16 in 10.0 mi WSW 6.9 mph - N/A   Clear
5:15 PM 35.6 °F 29.9 °F 23.0 °F 60% 30.17 in 10.0 mi WSW 6.9 mph - N/A   Clear
5:55 PM 33.8 °F 27.0 °F 24.8 °F 70% 30.18 in 10.0 mi WSW 8.1 mph - N/A   Clear
6:15 PM 32.0 °F 24.2 °F 23.0 °F 69% 30.20 in 10.0 mi West 9.2 mph - N/A   Clear
6:35 PM 30.2 °F 22.6 °F 21.2 °F 69% 30.20 in 10.0 mi West 8.1 mph - N/A   Clear
6:55 PM 30.2 °F 22.6 °F 23.0 °F 75% 30.20 in 10.0 mi West 8.1 mph - N/A   Clear
7:15 PM 30.2 °F 23.4 °F 23.0 °F 75% 30.21 in 10.0 mi West 6.9 mph - N/A   Clear
7:35 PM 28.4 °F 24.6 °F 21.2 °F 74% 30.22 in 10.0 mi West 3.5 mph - N/A   Clear
7:55 PM 26.6 °F 20.0 °F 21.2 °F 80% 30.23 in 10.0 mi West 5.8 mph - N/A   Clear
8:15 PM 28.4 °F 22.2 °F 21.2 °F 74% 30.24 in 10.0 mi WNW 5.8 mph - N/A   Clear
8:35 PM 24.8 °F 16.9 °F 19.4 °F 80% 30.25 in 10.0 mi WNW 6.9 mph - N/A   Clear
8:55 PM 24.8 °F 15.3 °F 19.4 °F 80% 30.25 in 10.0 mi WNW 9.2 mph - N/A   Clear
9:15 PM 26.6 °F 16.8 °F 19.4 °F 74% 30.25 in 10.0 mi NW 10.4 mph - N/A   Clear
9:35 PM 24.8 °F 16.1 °F 17.6 °F 74% 30.26 in 10.0 mi NW 8.1 mph - N/A   Clear
9:55 PM 24.8 °F 16.9 °F 19.4 °F 80% 30.26 in 10.0 mi NW 6.9 mph - N/A   Clear
10:15 PM 21.2 °F 13.6 °F 17.6 °F 86% 30.27 in 10.0 mi West 5.8 mph - N/A   Clear
10:55 PM 24.8 °F 19.1 °F 19.4 °F 80% 30.28 in 10.0 mi WSW 4.6 mph - N/A   Clear
11:15 PM 24.8 °F 20.5 °F 21.2 °F 86% 30.28 in 10.0 mi WSW 3.5 mph - N/A   Clear
11:55 PM 21.2 °F 16.4 °F 17.6 °F 86% 30.29 in 10.0 mi WSW 3.5 mph - N/A   Clear